createdAt,value
2019-05-09T00:00:23.290Z,1.57
2019-05-09T00:01:29.155Z,2.73
2019-05-09T00:02:35.118Z,4.30
2019-05-09T00:03:39.337Z,1.92
2019-05-09T00:04:44.133Z,5.12
2019-05-09T00:05:48.410Z,1.82
2019-05-09T00:06:54.455Z,2.80
2019-05-09T00:07:59.764Z,1.52
2019-05-09T00:09:05.871Z,1.88
2019-05-09T00:10:10.533Z,2.65
2019-05-09T00:11:15.000Z,2.50
2019-05-09T00:12:19.110Z,2.52
2019-05-09T00:13:23.843Z,1.60
2019-05-09T00:14:28.123Z,2.52
2019-05-09T00:15:33.287Z,3.83
2019-05-09T00:16:37.765Z,3.67
2019-05-09T00:17:43.971Z,1.67
2019-05-09T00:18:47.982Z,2.02
2019-05-09T00:19:54.123Z,1.55
2019-05-09T00:21:00.114Z,2.92
2019-05-09T00:22:04.902Z,1.60
2019-05-09T00:23:09.296Z,1.30
2019-05-09T00:24:14.011Z,1.57
2019-05-09T00:25:18.355Z,2.00
2019-05-09T00:26:23.549Z,4.20
2019-05-09T00:27:28.212Z,2.17
2019-05-09T00:28:36.050Z,3.60
2019-05-09T00:29:45.299Z,2.60
2019-05-09T00:30:56.870Z,1.55
2019-05-09T00:32:05.364Z,1.50
2019-05-09T00:33:09.652Z,1.20
2019-05-09T00:34:15.735Z,1.20
2019-05-09T00:35:24.334Z,1.53
2019-05-09T00:36:28.513Z,1.57
2019-05-09T00:37:53.609Z,2.12
2019-05-09T00:38:57.610Z,1.95
2019-05-09T00:40:04.096Z,2.75
2019-05-09T00:41:08.479Z,2.27
2019-05-09T00:42:13.697Z,1.53
2019-05-09T00:43:18.623Z,1.98
2019-05-09T00:44:27.176Z,1.12
2019-05-09T00:45:49.221Z,2.08
2019-05-09T00:46:55.203Z,3.08
2019-05-09T00:47:59.513Z,1.52
2019-05-09T00:49:05.534Z,2.55
2019-05-09T00:50:10.202Z,2.47
2019-05-09T00:51:14.395Z,2.63
2019-05-09T00:52:18.653Z,1.93
2019-05-09T00:53:23.319Z,1.00
2019-05-09T00:54:27.714Z,1.30
2019-05-09T00:55:33.255Z,2.58
2019-05-09T00:56:37.724Z,1.75
2019-05-09T00:57:43.848Z,2.08
2019-05-09T00:58:47.894Z,2.00
2019-05-09T00:59:53.168Z,1.22
2019-05-09T01:00:57.547Z,2.17
2019-05-09T01:02:03.876Z,3.60
2019-05-09T01:03:07.926Z,1.98
2019-05-09T01:04:13.663Z,1.57
2019-05-09T01:05:18.020Z,3.20
2019-05-09T01:06:23.882Z,2.63
2019-05-09T01:07:28.431Z,3.05
2019-05-09T01:08:33.658Z,1.17
2019-05-09T01:09:38.053Z,4.17
2019-05-09T01:10:43.664Z,1.75
2019-05-09T01:11:48.018Z,1.47
2019-05-09T01:12:54.258Z,2.05
2019-05-09T01:13:58.119Z,2.37
2019-05-09T01:15:03.468Z,1.70
2019-05-09T01:16:07.836Z,2.95
2019-05-09T01:17:13.646Z,2.33
2019-05-09T01:18:17.962Z,1.50
2019-05-09T01:19:23.275Z,1.95
2019-05-09T01:20:27.675Z,2.72
2019-05-09T01:21:33.338Z,1.20
2019-05-09T01:22:37.986Z,3.12
2019-05-09T01:23:43.590Z,3.65
2019-05-09T01:24:48.175Z,2.75
2019-05-09T01:25:53.048Z,3.30
2019-05-09T01:26:57.522Z,2.15
2019-05-09T01:28:03.362Z,2.95
2019-05-09T01:29:08.270Z,2.37
2019-05-09T01:30:13.564Z,3.00
2019-05-09T01:31:17.900Z,2.13
2019-05-09T01:32:23.823Z,2.00
2019-05-09T01:33:44.662Z,4.50
2019-05-09T01:34:48.948Z,2.77
2019-05-09T01:35:54.079Z,1.47
2019-05-09T01:37:04.385Z,3.55
2019-05-09T01:38:08.782Z,2.17
2019-05-09T01:39:13.804Z,2.67
2019-05-09T01:40:18.058Z,3.57
2019-05-09T01:41:29.771Z,3.77
2019-05-09T01:42:28.179Z,2.65
2019-05-09T01:43:33.757Z,3.02
2019-05-09T01:44:38.432Z,3.05
2019-05-09T01:45:43.581Z,3.70
2019-05-09T01:46:48.538Z,2.90
2019-05-09T01:47:53.768Z,2.00
2019-05-09T01:48:59.248Z,1.22
2019-05-09T01:50:04.028Z,2.83
2019-05-09T01:51:09.447Z,4.45
2019-05-09T01:52:13.891Z,2.27
2019-05-09T01:53:19.732Z,2.60
2019-05-09T01:54:25.052Z,2.55
2019-05-09T01:55:47.009Z,2.15
2019-05-09T01:56:53.744Z,3.72
2019-05-09T01:57:58.054Z,7.50
2019-05-09T01:59:03.020Z,5.42
2019-05-09T02:00:08.310Z,6.35
2019-05-09T02:01:13.572Z,2.20
2019-05-09T02:02:17.914Z,2.23
2019-05-09T02:03:23.719Z,2.40
2019-05-09T02:04:27.887Z,2.35
2019-05-09T02:05:34.050Z,4.47
2019-05-09T02:06:38.439Z,2.62
2019-05-09T02:07:43.806Z,2.52
2019-05-09T02:08:48.477Z,3.10
2019-05-09T02:09:54.007Z,3.65
2019-05-09T02:10:58.603Z,1.95
2019-05-09T02:12:04.481Z,3.54
2019-05-09T02:13:09.847Z,2.47
2019-05-09T02:14:15.774Z,2.33
2019-05-09T02:15:24.454Z,2.30
2019-05-09T02:16:44.907Z,1.57
2019-05-09T02:18:01.112Z,3.67
2019-05-09T02:19:13.857Z,2.85
2019-05-09T02:20:18.097Z,3.00
2019-05-09T02:21:24.058Z,2.97
2019-05-09T02:22:34.997Z,1.98
2019-05-09T02:23:39.475Z,3.00
2019-05-09T02:24:44.106Z,2.55
2019-05-09T02:25:49.875Z,2.33
2019-05-09T02:26:54.056Z,3.02
2019-05-09T02:27:58.279Z,3.27
2019-05-09T02:29:03.295Z,4.37
2019-05-09T02:30:10.184Z,4.00
2019-05-09T02:31:16.314Z,1.60
2019-05-09T02:32:20.362Z,4.77
2019-05-09T02:33:25.067Z,2.67
2019-05-09T02:34:29.252Z,1.80
2019-05-09T02:35:41.536Z,2.92
2019-05-09T02:36:39.476Z,2.72
2019-05-09T02:37:43.660Z,2.98
2019-05-09T02:38:48.895Z,3.22
2019-05-09T02:39:53.320Z,4.00
2019-05-09T02:40:59.531Z,1.82
2019-05-09T02:42:09.456Z,4.78
2019-05-09T02:43:10.108Z,2.37
2019-05-09T02:44:14.391Z,2.00
2019-05-09T02:45:19.541Z,2.37
2019-05-09T02:46:29.342Z,3.73
2019-05-09T02:47:33.985Z,2.52
2019-05-09T02:48:38.702Z,4.80
2019-05-09T02:49:42.959Z,1.70
2019-05-09T02:50:48.547Z,2.30
2019-05-09T02:51:53.062Z,2.42
2019-05-09T02:52:59.060Z,4.05
2019-05-09T02:54:03.096Z,3.02
2019-05-09T02:55:09.967Z,4.53
2019-05-09T02:56:14.242Z,3.27
2019-05-09T02:57:18.731Z,2.60
2019-05-09T02:58:28.024Z,2.47
2019-05-09T02:59:38.509Z,2.50
2019-05-09T03:00:49.239Z,4.12
2019-05-09T03:01:58.765Z,4.33
2019-05-09T03:03:09.337Z,4.56
2019-05-09T03:04:12.336Z,3.53
2019-05-09T03:05:19.628Z,2.80
2019-05-09T03:06:22.497Z,5.33
2019-05-09T03:07:44.244Z,3.20
2019-05-09T03:08:49.243Z,4.20
2019-05-09T03:09:53.677Z,2.17
2019-05-09T03:10:59.130Z,3.20
2019-05-09T03:12:21.416Z,3.04
2019-05-09T03:13:10.218Z,1.40
2019-05-09T03:14:14.448Z,4.53
2019-05-09T03:15:18.992Z,2.60
2019-05-09T03:16:23.286Z,3.55
2019-05-09T03:17:28.143Z,3.15
2019-05-09T03:18:32.404Z,1.65
2019-05-09T03:19:38.696Z,5.17
2019-05-09T03:20:49.194Z,4.55
2019-05-09T03:21:54.529Z,2.35
2019-05-09T03:22:59.011Z,3.50
2019-05-09T03:24:03.169Z,2.52
2019-05-09T03:25:09.076Z,4.25
2019-05-09T03:26:15.102Z,3.07
2019-05-09T03:27:20.907Z,2.07
2019-05-09T03:28:32.535Z,3.10
2019-05-09T03:29:39.647Z,1.92
2019-05-09T03:30:50.063Z,2.62
2019-05-09T03:31:54.592Z,2.58
2019-05-09T03:32:59.796Z,2.37
2019-05-09T03:34:04.390Z,2.33
2019-05-09T03:35:08.823Z,1.90
2019-05-09T03:36:12.987Z,3.37
2019-05-09T03:37:17.808Z,2.80
2019-05-09T03:38:22.146Z,1.80
2019-05-09T03:39:27.608Z,2.95
2019-05-09T03:40:32.217Z,1.65
2019-05-09T03:41:36.489Z,2.05
2019-05-09T03:42:43.773Z,1.90
2019-05-09T03:43:48.263Z,2.33
2019-05-09T03:44:52.561Z,1.85
2019-05-09T03:46:04.141Z,2.80
2019-05-09T03:47:10.084Z,2.08
2019-05-09T03:48:18.007Z,2.13
2019-05-09T03:49:23.630Z,3.27
2019-05-09T03:50:28.028Z,2.10
2019-05-09T03:51:32.231Z,3.98
2019-05-09T03:52:37.300Z,4.35
2019-05-09T03:53:41.499Z,3.45
2019-05-09T03:54:47.625Z,1.85
2019-05-09T03:55:53.161Z,4.45
2019-05-09T03:57:04.929Z,4.70
2019-05-09T03:58:10.850Z,3.05
2019-05-09T03:59:17.465Z,2.43
2019-05-09T04:00:21.075Z,3.13
2019-05-09T04:01:27.489Z,2.50
2019-05-09T04:02:31.119Z,2.20
2019-05-09T04:03:37.702Z,2.47
2019-05-09T04:04:41.260Z,3.00
2019-05-09T04:05:56.526Z,2.90
2019-05-09T04:06:51.532Z,3.15
2019-05-09T04:07:58.264Z,2.90
2019-05-09T04:09:02.538Z,1.52
2019-05-09T04:10:07.812Z,4.22
2019-05-09T04:11:12.134Z,3.00
2019-05-09T04:12:18.118Z,7.37
2019-05-09T04:13:24.271Z,3.50
2019-05-09T04:14:30.194Z,1.25
2019-05-09T04:15:34.437Z,2.92
2019-05-09T04:16:38.687Z,3.95
2019-05-09T04:17:47.583Z,1.47
2019-05-09T04:18:52.014Z,4.37
2019-05-09T04:19:57.840Z,1.20
2019-05-09T04:21:02.194Z,3.70
2019-05-09T04:22:08.039Z,4.97
2019-05-09T04:23:12.362Z,2.73
2019-05-09T04:24:17.702Z,2.97
2019-05-09T04:25:23.601Z,2.10
2019-05-09T04:26:29.413Z,3.10
2019-05-09T04:27:34.445Z,1.72
2019-05-09T04:28:39.897Z,2.37
2019-05-09T04:29:44.145Z,2.87
2019-05-09T04:30:48.406Z,1.17
2019-05-09T04:31:52.572Z,3.27
2019-05-09T04:32:58.149Z,1.27
2019-05-09T04:34:02.534Z,1.65
2019-05-09T04:35:08.123Z,1.57
2019-05-09T04:36:12.352Z,2.50
2019-05-09T04:37:18.041Z,5.07
2019-05-09T04:38:22.633Z,3.60
2019-05-09T04:39:28.230Z,3.08
2019-05-09T04:40:37.755Z,2.55
2019-05-09T04:41:38.847Z,3.42
2019-05-09T04:42:44.491Z,2.45
2019-05-09T04:43:48.821Z,5.33
2019-05-09T04:45:03.564Z,2.27
2019-05-09T04:46:08.011Z,6.92
2019-05-09T04:47:12.445Z,2.33
2019-05-09T04:48:24.291Z,3.90
2019-05-09T04:49:30.097Z,1.65
2019-05-09T04:50:34.329Z,2.70
2019-05-09T04:51:39.328Z,2.77
2019-05-09T04:52:43.756Z,5.42
2019-05-09T04:53:48.117Z,3.22
2019-05-09T04:54:52.601Z,3.92
2019-05-09T04:55:58.703Z,3.40
2019-05-09T04:57:02.908Z,2.67
2019-05-09T04:58:09.236Z,2.20
2019-05-09T04:59:13.057Z,3.93
2019-05-09T05:00:19.211Z,3.65
2019-05-09T05:01:28.310Z,5.00
2019-05-09T05:02:40.211Z,1.70
2019-05-09T05:03:45.099Z,1.32
2019-05-09T05:04:49.307Z,3.72
2019-05-09T05:05:55.257Z,3.30
2019-05-09T05:06:59.419Z,2.08
2019-05-09T05:08:04.623Z,3.48
2019-05-09T05:09:09.338Z,2.62
2019-05-09T05:10:13.507Z,2.47
2019-05-09T05:11:17.921Z,2.60
2019-05-09T05:12:22.293Z,5.17
2019-05-09T05:13:29.414Z,3.30
2019-05-09T05:14:32.456Z,4.47
2019-05-09T05:15:37.769Z,2.87
2019-05-09T05:16:42.095Z,3.58
2019-05-09T05:17:47.760Z,1.80
2019-05-09T05:18:53.041Z,1.85
2019-05-09T05:19:58.016Z,3.20
2019-05-09T05:21:02.365Z,1.75
2019-05-09T05:22:14.215Z,2.60
2019-05-09T05:23:23.039Z,3.80
2019-05-09T05:24:28.852Z,3.20
2019-05-09T05:25:33.166Z,5.58
2019-05-09T05:26:38.062Z,3.98
2019-05-09T05:27:42.311Z,4.08
2019-05-09T05:28:47.481Z,6.78
2019-05-09T05:29:51.677Z,3.00
2019-05-09T05:30:58.056Z,2.35
2019-05-09T05:32:05.152Z,3.65
2019-05-09T05:33:10.962Z,2.62
2019-05-09T05:34:18.272Z,2.60
2019-05-09T05:35:28.465Z,3.42
2019-05-09T05:36:32.742Z,2.92
2019-05-09T05:37:38.658Z,7.47
2019-05-09T05:38:42.776Z,3.25
2019-05-09T05:39:47.756Z,8.25
2019-05-09T05:40:52.353Z,7.97
2019-05-09T05:41:59.181Z,3.55
2019-05-09T05:43:04.587Z,4.92
2019-05-09T05:44:08.816Z,3.92
2019-05-09T05:45:13.238Z,4.97
2019-05-09T05:46:35.149Z,3.00
2019-05-09T05:47:41.165Z,2.65
2019-05-09T05:48:45.706Z,1.72
2019-05-09T05:49:49.872Z,2.15
2019-05-09T05:50:54.113Z,2.52
2019-05-09T05:51:58.287Z,1.67
2019-05-09T05:53:02.639Z,1.85
2019-05-09T05:54:07.776Z,2.08
2019-05-09T05:55:12.338Z,1.75
2019-05-09T05:56:17.647Z,2.17
2019-05-09T05:57:21.984Z,2.37
2019-05-09T05:58:28.228Z,2.02
2019-05-09T05:59:32.121Z,1.30
2019-05-09T06:00:37.767Z,2.27
2019-05-09T06:01:42.032Z,1.72
2019-05-09T06:02:47.860Z,4.25
2019-05-09T06:03:52.193Z,2.58
2019-05-09T06:04:57.863Z,3.08
2019-05-09T06:06:02.224Z,1.82
2019-05-09T06:07:07.960Z,3.72
2019-05-09T06:08:13.575Z,0.97
2019-05-09T06:09:18.996Z,1.77
2019-05-09T06:10:23.526Z,2.37
2019-05-09T06:11:28.228Z,2.47
2019-05-09T06:12:32.586Z,2.95
2019-05-09T06:13:37.943Z,2.67
2019-05-09T06:14:42.278Z,3.65
2019-05-09T06:15:48.157Z,3.20
2019-05-09T06:16:52.792Z,1.50
2019-05-09T06:17:57.930Z,4.15
2019-05-09T06:19:02.411Z,3.55
2019-05-09T06:20:09.094Z,3.35
2019-05-09T06:21:13.438Z,2.43
2019-05-09T06:22:18.836Z,2.77
2019-05-09T06:23:23.012Z,2.40
2019-05-09T06:24:28.251Z,2.35
2019-05-09T06:25:32.634Z,2.83
2019-05-09T06:26:37.354Z,2.20
2019-05-09T06:27:42.470Z,1.50
2019-05-09T06:28:52.901Z,1.25
2019-05-09T06:30:00.428Z,2.22
2019-05-09T06:31:08.370Z,3.70
2019-05-09T06:32:24.555Z,3.77
2019-05-09T06:33:46.274Z,2.95
2019-05-09T06:34:48.681Z,2.58
2019-05-09T06:35:58.661Z,3.50
2019-05-09T06:37:12.812Z,3.20
2019-05-09T06:38:21.991Z,4.80
2019-05-09T06:39:29.554Z,1.62
2019-05-09T06:40:42.556Z,2.95
2019-05-09T06:41:48.692Z,2.98
2019-05-09T06:43:00.905Z,3.10
2019-05-09T06:44:20.583Z,2.83
2019-05-09T06:45:42.915Z,7.27
2019-05-09T06:46:51.883Z,4.08
2019-05-09T06:48:04.788Z,2.33
2019-05-09T06:49:27.562Z,2.45
2019-05-09T06:50:31.062Z,1.98
2019-05-09T06:51:38.759Z,1.82
2019-05-09T06:52:48.705Z,3.15
2019-05-09T06:53:58.534Z,5.47
2019-05-09T06:55:08.641Z,2.27
2019-05-09T06:56:17.837Z,2.45
2019-05-09T06:57:23.371Z,2.07
2019-05-09T06:58:39.615Z,1.77
2019-05-09T06:59:50.085Z,4.22
2019-05-09T07:01:09.659Z,2.20
2019-05-09T07:02:22.130Z,2.53
2019-05-09T07:03:29.927Z,2.08
2019-05-09T07:04:42.832Z,1.67
2019-05-09T07:06:08.429Z,2.40
2019-05-09T07:07:21.481Z,3.70
2019-05-09T07:08:31.444Z,1.52
2019-05-09T07:09:39.005Z,3.60
2019-05-09T07:10:49.273Z,3.42
2019-05-09T07:11:55.140Z,3.67
2019-05-09T07:13:02.565Z,3.87
2019-05-09T07:14:33.371Z,4.35
2019-05-09T07:15:39.683Z,2.53
2019-05-09T07:16:59.339Z,3.67
2019-05-09T07:18:08.265Z,2.50
2019-05-09T07:19:22.862Z,2.20
2019-05-09T07:20:28.439Z,3.42
2019-05-09T07:21:54.907Z,3.00
2019-05-09T07:23:09.040Z,2.10
2019-05-09T07:24:18.473Z,5.17
2019-05-09T07:25:33.345Z,2.22
2019-05-09T07:26:39.298Z,2.58
2019-05-09T07:27:48.250Z,2.50
2019-05-09T07:28:54.356Z,3.60
2019-05-09T07:30:03.504Z,2.08
2019-05-09T07:31:25.479Z,4.10
2019-05-09T07:33:02.530Z,1.37
2019-05-09T07:34:08.735Z,2.33
2019-05-09T07:35:18.424Z,5.07
2019-05-09T07:36:29.135Z,1.80
2019-05-09T07:37:38.177Z,5.25
2019-05-09T07:38:47.788Z,2.55
2019-05-09T07:39:54.752Z,3.42
2019-05-09T07:41:04.992Z,3.62
2019-05-09T07:42:10.943Z,3.67
2019-05-09T07:43:18.389Z,3.70
2019-05-09T07:44:24.333Z,3.80
2019-05-09T07:45:31.810Z,4.67
2019-05-09T07:46:40.963Z,3.20
2019-05-09T07:47:47.842Z,6.33
2019-05-09T07:48:57.912Z,3.90
2019-05-09T07:50:13.330Z,4.62
2019-05-09T07:51:39.039Z,5.20
2019-05-09T07:52:47.707Z,5.70
2019-05-09T07:53:58.917Z,4.53
2019-05-09T07:55:09.177Z,7.00
2019-05-09T07:56:18.635Z,5.40
2019-05-09T07:57:28.381Z,5.85
2019-05-09T07:58:37.518Z,8.13
2019-05-09T07:59:47.872Z,4.92
2019-05-09T08:01:01.593Z,6.92
2019-05-09T08:02:09.038Z,4.80
2019-05-09T08:03:19.081Z,5.77
2019-05-09T08:04:29.670Z,4.25
2019-05-09T08:05:42.937Z,7.72
2019-05-09T08:06:54.613Z,6.03
2019-05-09T08:08:04.678Z,6.03
2019-05-09T08:09:10.481Z,3.08
2019-05-09T08:10:18.210Z,4.97
2019-05-09T08:11:28.460Z,7.40
2019-05-09T08:12:34.815Z,4.37
2019-05-09T08:13:42.335Z,4.58
2019-05-09T08:15:07.288Z,5.80
2019-05-09T08:16:01.976Z,6.17
2019-05-09T08:17:09.408Z,5.40
2019-05-09T08:18:20.925Z,5.17
2019-05-09T08:19:34.374Z,5.78
2019-05-09T08:20:43.297Z,3.95
2019-05-09T08:21:49.320Z,3.55
2019-05-09T08:23:01.310Z,3.35
2019-05-09T08:24:08.137Z,4.40
2019-05-09T08:25:18.512Z,3.20
2019-05-09T08:26:39.637Z,3.55
2019-05-09T08:27:48.108Z,2.47
2019-05-09T08:29:01.724Z,2.80
2019-05-09T08:30:17.804Z,3.70
2019-05-09T08:31:24.067Z,6.05
2019-05-09T08:32:31.436Z,2.80
2019-05-09T08:33:39.061Z,2.35
2019-05-09T08:35:04.438Z,2.72
2019-05-09T08:36:18.063Z,3.50
2019-05-09T08:37:28.072Z,4.23
2019-05-09T08:38:49.560Z,5.70
2019-05-09T08:39:57.691Z,4.17
2019-05-09T08:41:12.871Z,5.05
2019-05-09T08:42:20.673Z,2.80
2019-05-09T08:43:29.167Z,5.05
2019-05-09T08:44:38.254Z,5.28
2019-05-09T08:45:52.998Z,3.33
2019-05-09T08:47:15.180Z,5.37
2019-05-09T08:48:25.306Z,4.60
2019-05-09T08:49:40.155Z,3.30
2019-05-09T08:50:52.535Z,4.15
2019-05-09T08:52:16.497Z,5.60
2019-05-09T08:53:28.342Z,4.27
2019-05-09T08:54:43.229Z,5.95
2019-05-09T08:55:49.139Z,7.33
2019-05-09T08:57:07.455Z,3.12
2019-05-09T08:58:14.302Z,5.50
2019-05-09T08:59:38.275Z,4.17
2019-05-09T09:00:51.236Z,3.17
2019-05-09T09:02:15.745Z,3.77
2019-05-09T09:03:21.657Z,2.40
2019-05-09T09:04:38.641Z,4.87
2019-05-09T09:05:44.482Z,5.10
2019-05-09T09:06:57.876Z,4.78
2019-05-09T09:08:08.005Z,3.58
2019-05-09T09:09:14.479Z,3.50
2019-05-09T09:10:21.942Z,3.00
2019-05-09T09:11:38.723Z,3.17
2019-05-09T09:12:44.687Z,4.90
2019-05-09T09:13:57.829Z,3.85
2019-05-09T09:15:02.294Z,3.67
2019-05-09T09:16:18.730Z,2.47
2019-05-09T09:17:22.549Z,3.23
2019-05-09T09:18:35.797Z,3.65
2019-05-09T09:19:44.248Z,2.80
2019-05-09T09:20:53.410Z,5.30
2019-05-09T09:22:00.840Z,3.15
2019-05-09T09:23:09.119Z,4.15
2019-05-09T09:24:19.598Z,3.37
2019-05-09T09:25:32.859Z,5.50
2019-05-09T09:26:40.334Z,4.10
2019-05-09T09:27:50.667Z,4.03
2019-05-09T09:28:57.738Z,2.33
2019-05-09T09:30:20.310Z,3.30
2019-05-09T09:31:21.277Z,4.90
2019-05-09T09:32:28.724Z,4.35
2019-05-09T09:33:37.801Z,4.08
2019-05-09T09:34:51.428Z,4.42
2019-05-09T09:35:58.982Z,4.67
2019-05-09T09:37:06.803Z,5.20
2019-05-09T09:38:14.048Z,4.90
2019-05-09T09:39:21.542Z,3.93
2019-05-09T09:40:32.105Z,5.07
2019-05-09T09:41:38.824Z,4.78
2019-05-09T09:42:48.820Z,4.72
2019-05-09T09:43:58.021Z,4.37
2019-05-09T09:45:03.028Z,4.20
2019-05-09T09:46:18.273Z,3.15
2019-05-09T09:47:25.281Z,4.58
2019-05-09T09:48:35.669Z,3.90
2019-05-09T09:49:41.476Z,4.05
2019-05-09T09:50:51.303Z,4.55
2019-05-09T09:51:59.970Z,3.92
2019-05-09T09:53:04.899Z,5.58
2019-05-09T09:54:12.325Z,4.47
2019-05-09T09:55:38.380Z,3.30
2019-05-09T09:56:49.930Z,3.80
2019-05-09T09:57:54.106Z,3.42
2019-05-09T09:59:21.104Z,3.12
2019-05-09T10:00:52.757Z,3.08
2019-05-09T10:02:01.821Z,2.52
2019-05-09T10:03:14.794Z,4.33
2019-05-09T10:04:24.720Z,3.00
2019-05-09T10:05:32.236Z,5.75
2019-05-09T10:06:39.665Z,2.58
2019-05-09T10:07:51.130Z,2.70
2019-05-09T10:09:09.439Z,3.42
2019-05-09T10:10:34.527Z,5.50
2019-05-09T10:11:43.035Z,4.03
2019-05-09T10:12:50.529Z,2.50
2019-05-09T10:13:58.446Z,7.08
2019-05-09T10:15:28.599Z,3.90
2019-05-09T10:16:38.996Z,3.60
2019-05-09T10:17:58.091Z,4.67
2019-05-09T10:19:12.216Z,3.92
2019-05-09T10:20:24.024Z,4.60
2019-05-09T10:21:40.655Z,3.35
2019-05-09T10:22:58.478Z,2.90
2019-05-09T10:23:58.193Z,2.65
2019-05-09T10:25:03.993Z,2.92
2019-05-09T10:26:10.855Z,3.10
2019-05-09T10:27:18.521Z,2.13
2019-05-09T10:28:30.058Z,3.50
2019-05-09T10:29:35.812Z,4.90
2019-05-09T10:30:43.271Z,5.15
2019-05-09T10:31:50.828Z,3.87
2019-05-09T10:33:09.341Z,3.60
2019-05-09T10:34:19.719Z,3.97
2019-05-09T10:36:32.193Z,3.25
2019-05-09T10:37:39.301Z,5.10
2019-05-09T10:38:58.990Z,3.62
2019-05-09T10:40:07.838Z,4.03
2019-05-09T10:41:18.295Z,3.77
2019-05-09T10:43:48.557Z,5.92
2019-05-09T10:45:00.717Z,3.30
2019-05-09T10:46:19.454Z,5.03
2019-05-09T10:47:28.545Z,2.07
2019-05-09T10:48:32.715Z,4.30
2019-05-09T10:49:37.968Z,3.27
2019-05-09T10:50:45.295Z,3.90
2019-05-09T10:51:48.618Z,2.33
2019-05-09T10:52:52.782Z,3.37
2019-05-09T10:53:58.804Z,4.33
2019-05-09T10:55:02.930Z,3.45
2019-05-09T10:56:08.576Z,3.22
2019-05-09T10:57:13.220Z,3.30
2019-05-09T10:58:20.206Z,4.10
2019-05-09T10:59:23.393Z,3.93
2019-05-09T11:00:28.886Z,4.42
2019-05-09T11:01:33.263Z,2.50
2019-05-09T11:02:38.550Z,3.12
2019-05-09T11:03:42.740Z,3.77
2019-05-09T11:04:49.085Z,2.40
2019-05-09T11:05:52.845Z,2.95
2019-05-09T11:06:58.277Z,6.58
2019-05-09T11:08:02.820Z,6.67
2019-05-09T11:09:09.121Z,4.28
2019-05-09T11:10:24.723Z,5.50
2019-05-09T11:11:19.319Z,4.28
2019-05-09T11:12:23.692Z,2.98
2019-05-09T11:13:28.714Z,3.95
2019-05-09T11:14:37.230Z,4.65
2019-05-09T11:15:39.104Z,4.55
2019-05-09T11:16:49.147Z,6.62
2019-05-09T11:17:50.480Z,4.83
2019-05-09T11:18:58.318Z,5.28
2019-05-09T11:20:01.601Z,4.90
2019-05-09T11:21:08.306Z,4.15
2019-05-09T11:22:11.656Z,4.63
2019-05-09T11:23:16.002Z,4.20
2019-05-09T11:24:20.173Z,3.63
2019-05-09T11:25:24.482Z,5.65
2019-05-09T11:26:29.005Z,5.37
2019-05-09T11:27:33.641Z,3.80
2019-05-09T11:28:38.015Z,2.90
2019-05-09T11:29:42.259Z,3.72
2019-05-09T11:30:47.618Z,4.95
2019-05-09T11:31:53.434Z,2.40
2019-05-09T11:32:59.657Z,3.67
2019-05-09T11:34:03.528Z,6.05
2019-05-09T11:35:08.936Z,16.40
2019-05-09T11:36:14.335Z,15.47
2019-05-09T11:37:22.141Z,12.90
2019-05-09T11:38:32.875Z,5.25
2019-05-09T11:39:37.537Z,5.30
2019-05-09T11:40:37.862Z,9.30
2019-05-09T11:41:42.303Z,10.28
2019-05-09T11:42:48.247Z,7.95
2019-05-09T11:43:52.850Z,16.15
2019-05-09T11:44:58.057Z,7.92
2019-05-09T11:46:02.500Z,16.12
2019-05-09T11:47:23.983Z,14.80
2019-05-09T11:48:12.629Z,4.10
2019-05-09T11:49:18.023Z,9.53
2019-05-09T11:50:23.315Z,8.17
2019-05-09T11:51:29.078Z,6.03
2019-05-09T11:52:33.788Z,8.25
2019-05-09T11:53:40.176Z,4.85
2019-05-09T11:54:44.945Z,4.22
2019-05-09T11:55:49.229Z,2.40
2019-05-09T11:56:53.494Z,4.40
2019-05-09T11:57:59.074Z,5.00
2019-05-09T11:59:04.183Z,2.98
2019-05-09T12:00:09.090Z,3.52
2019-05-09T12:01:13.293Z,2.33
2019-05-09T12:02:18.223Z,4.22
2019-05-09T12:03:23.301Z,4.67
2019-05-09T12:04:28.315Z,2.22
2019-05-09T12:05:33.895Z,5.75
2019-05-09T12:06:39.463Z,3.90
2019-05-09T12:07:43.700Z,3.77
2019-05-09T12:10:19.113Z,25.85
2019-05-09T12:11:23.685Z,34.47
2019-05-09T12:12:28.394Z,45.05
2019-05-09T12:13:32.777Z,45.50
2019-05-09T12:14:38.208Z,37.95
2019-05-09T12:15:42.659Z,53.40
2019-05-09T12:16:47.995Z,50.78
2019-05-09T12:17:58.495Z,40.35
2019-05-09T12:18:58.751Z,39.40
2019-05-09T12:20:12.245Z,44.13
2019-05-09T12:21:10.753Z,36.27
2019-05-09T12:22:15.013Z,81.10
2019-05-09T12:23:19.940Z,39.90
2019-05-09T12:24:24.825Z,41.77
2019-05-09T12:25:29.244Z,10.78
2019-05-09T12:26:33.551Z,35.90
2019-05-09T12:27:37.874Z,38.02
2019-05-09T12:28:42.281Z,50.92
2019-05-09T12:29:48.354Z,30.72
2019-05-09T12:30:54.459Z,14.18
2019-05-09T12:31:58.797Z,45.30
2019-05-09T12:33:03.390Z,52.93
2019-05-09T12:34:09.139Z,24.52
2019-05-09T12:35:13.643Z,35.80
2019-05-09T12:36:19.367Z,36.30
2019-05-09T12:37:24.216Z,62.70
2019-05-09T12:38:28.536Z,19.62
2019-05-09T12:39:32.879Z,8.30
2019-05-09T12:40:38.869Z,9.05
2019-05-09T12:42:02.213Z,10.63
2019-05-09T12:43:08.900Z,11.12
2019-05-09T12:44:12.610Z,11.63
2019-05-09T12:45:18.043Z,26.23
2019-05-09T12:46:22.480Z,51.83
2019-05-09T12:47:29.095Z,24.05
2019-05-09T12:48:32.601Z,55.98
2019-05-09T12:49:38.611Z,7.92
2019-05-09T12:50:42.805Z,6.50
2019-05-09T12:51:47.045Z,10.90
2019-05-09T12:52:51.260Z,18.10
2019-05-09T12:53:57.849Z,8.63
2019-05-09T12:55:01.621Z,13.13
2019-05-09T12:56:07.955Z,14.90
2019-05-09T12:57:11.709Z,14.70
2019-05-09T12:58:28.302Z,6.43
2019-05-09T12:59:46.452Z,5.05
2019-05-09T13:00:39.443Z,6.00
2019-05-09T13:01:43.632Z,8.80
2019-05-09T13:02:47.854Z,4.90
2019-05-09T13:03:52.120Z,3.77
2019-05-09T13:04:57.632Z,4.50
2019-05-09T13:06:02.012Z,3.98
2019-05-09T13:07:08.426Z,4.47
2019-05-09T13:08:12.111Z,4.03
2019-05-09T13:09:17.780Z,3.70
2019-05-09T13:10:22.187Z,3.43
2019-05-09T13:11:27.902Z,2.45
2019-05-09T13:12:32.299Z,2.05
2019-05-09T13:13:40.768Z,1.32
2019-05-09T13:14:42.419Z,4.53
2019-05-09T13:16:04.809Z,3.33
2019-05-09T13:17:27.347Z,7.17
2019-05-09T13:18:37.572Z,7.50
2019-05-09T13:19:50.830Z,3.33
2019-05-09T13:20:57.946Z,2.40
2019-05-09T13:22:01.339Z,2.80
2019-05-09T13:23:05.608Z,1.77
2019-05-09T13:24:09.876Z,5.20
2019-05-09T13:25:14.067Z,2.00
2019-05-09T13:26:18.725Z,4.12
2019-05-09T13:27:22.977Z,3.13
2019-05-09T13:28:27.116Z,2.52
2019-05-09T13:29:31.347Z,1.62
2019-05-09T13:30:37.997Z,1.52
2019-05-09T13:31:41.542Z,1.55
2019-05-09T13:32:48.199Z,0.90
2019-05-09T13:33:51.688Z,2.37
2019-05-09T13:34:57.824Z,2.70
2019-05-09T13:36:01.876Z,1.92
2019-05-09T13:37:08.837Z,1.40
2019-05-09T13:38:13.006Z,1.42
2019-05-09T13:39:17.952Z,1.87
2019-05-09T13:40:22.223Z,4.07
2019-05-09T13:41:26.483Z,6.30
2019-05-09T13:42:30.750Z,2.45
2019-05-09T13:43:45.812Z,1.40
2019-05-09T13:44:42.059Z,3.10
2019-05-09T13:45:46.270Z,1.05
2019-05-09T13:46:50.434Z,0.98
2019-05-09T13:47:54.578Z,1.95
2019-05-09T13:49:10.940Z,1.12
2019-05-09T13:50:08.834Z,1.32
2019-05-09T13:51:12.571Z,1.03
2019-05-09T13:52:17.950Z,3.33
2019-05-09T13:53:23.253Z,1.85
2019-05-09T13:54:28.587Z,1.00
2019-05-09T13:55:32.979Z,0.80
2019-05-09T13:56:37.146Z,0.80
2019-05-09T13:57:41.371Z,1.15
2019-05-09T13:58:45.541Z,1.67
2019-05-09T13:59:49.723Z,1.00
2019-05-09T14:00:58.945Z,2.08
2019-05-09T14:02:00.108Z,1.00
2019-05-09T14:03:04.910Z,1.56
2019-05-09T14:04:09.077Z,1.65
2019-05-09T14:05:13.244Z,0.80
2019-05-09T14:06:17.462Z,1.00
2019-05-09T14:07:21.608Z,0.60
2019-05-09T14:08:27.979Z,1.27
2019-05-09T14:09:31.670Z,1.10
2019-05-09T14:10:38.142Z,0.82
2019-05-09T14:11:41.728Z,1.30
2019-05-09T14:13:02.149Z,2.37
2019-05-09T14:13:51.784Z,1.10
2019-05-09T14:14:58.223Z,0.78
2019-05-09T14:16:15.558Z,1.40
2019-05-09T14:17:08.520Z,1.92
2019-05-09T14:18:13.681Z,2.40
2019-05-09T14:19:36.200Z,2.40
2019-05-09T14:20:23.968Z,2.10
2019-05-09T14:21:29.735Z,1.57
2019-05-09T14:22:34.184Z,4.00
2019-05-09T14:23:48.277Z,1.07
2019-05-09T14:24:45.124Z,0.78
2019-05-09T14:25:52.006Z,2.33
2019-05-09T14:26:55.177Z,2.47
2019-05-09T14:27:59.412Z,1.10
2019-05-09T14:29:04.299Z,1.30
2019-05-09T14:30:08.527Z,2.60
2019-05-09T14:31:12.690Z,1.20
2019-05-09T14:32:16.870Z,2.00
2019-05-09T14:33:21.049Z,0.97
2019-05-09T14:34:25.381Z,1.32
2019-05-09T14:35:29.572Z,0.90
2019-05-09T14:36:34.096Z,0.90
2019-05-09T14:37:38.916Z,1.00
2019-05-09T14:38:43.151Z,1.52
2019-05-09T14:39:55.738Z,1.42
2019-05-09T14:40:53.282Z,1.60
2019-05-09T14:41:57.961Z,1.57
2019-05-09T14:43:03.187Z,1.10
2019-05-09T14:44:09.331Z,1.20
2019-05-09T14:45:15.200Z,1.40
2019-05-09T14:46:19.361Z,0.90
2019-05-09T14:47:23.529Z,1.47
2019-05-09T14:48:28.688Z,0.60
2019-05-09T14:49:43.345Z,0.62
2019-05-09T14:50:38.851Z,1.50
2019-05-09T14:51:44.082Z,0.70
2019-05-09T14:52:50.477Z,0.75
2019-05-09T14:53:54.904Z,0.70
2019-05-09T14:54:59.186Z,1.52
2019-05-09T14:56:03.681Z,1.00